sensor_id;sensor_type;location;lat;lon;timestamp;P1;durP1;ratioP1;P2;durP2;ratioP2
75156;SDS011;63736;50.076;8.198;2022-10-15T00:01:36;4.17;;;1.33;;
75156;SDS011;63736;50.076;8.198;2022-10-15T00:04:02;5.35;;;1.77;;
75156;SDS011;63736;50.076;8.198;2022-10-15T00:06:28;7.55;;;1.90;;
75156;SDS011;63736;50.076;8.198;2022-10-15T00:08:53;5.17;;;1.80;;
75156;SDS011;63736;50.076;8.198;2022-10-15T00:11:20;4.20;;;1.23;;
75156;SDS011;63736;50.076;8.198;2022-10-15T00:13:47;5.32;;;1.88;;
75156;SDS011;63736;50.076;8.198;2022-10-15T00:16:15;6.43;;;1.88;;
75156;SDS011;63736;50.076;8.198;2022-10-15T00:18:43;4.53;;;1.85;;
75156;SDS011;63736;50.076;8.198;2022-10-15T00:21:09;3.03;;;0.70;;
75156;SDS011;63736;50.076;8.198;2022-10-15T00:23:37;4.60;;;1.40;;
75156;SDS011;63736;50.076;8.198;2022-10-15T00:26:06;4.57;;;1.50;;
75156;SDS011;63736;50.076;8.198;2022-10-15T00:28:33;4.22;;;1.27;;
75156;SDS011;63736;50.076;8.198;2022-10-15T00:31:00;4.87;;;1.73;;
75156;SDS011;63736;50.076;8.198;2022-10-15T00:33:29;3.80;;;1.27;;
75156;SDS011;63736;50.076;8.198;2022-10-15T00:35:59;4.97;;;1.70;;
75156;SDS011;63736;50.076;8.198;2022-10-15T00:38:36;3.90;;;1.13;;
75156;SDS011;63736;50.076;8.198;2022-10-15T00:41:02;4.38;;;1.50;;
75156;SDS011;63736;50.076;8.198;2022-10-15T00:46:03;3.53;;;1.00;;
75156;SDS011;63736;50.076;8.198;2022-10-15T00:48:29;3.40;;;1.10;;
75156;SDS011;63736;50.076;8.198;2022-10-15T00:50:55;3.67;;;1.02;;
75156;SDS011;63736;50.076;8.198;2022-10-15T00:53:24;3.20;;;1.20;;
75156;SDS011;63736;50.076;8.198;2022-10-15T00:55:49;3.07;;;0.60;;
75156;SDS011;63736;50.076;8.198;2022-10-15T00:58:19;2.43;;;0.67;;
75156;SDS011;63736;50.076;8.198;2022-10-15T01:00:51;3.10;;;0.70;;
75156;SDS011;63736;50.076;8.198;2022-10-15T01:03:18;3.22;;;0.70;;
75156;SDS011;63736;50.076;8.198;2022-10-15T01:05:43;3.20;;;0.90;;
75156;SDS011;63736;50.076;8.198;2022-10-15T01:08:13;2.72;;;0.70;;
75156;SDS011;63736;50.076;8.198;2022-10-15T01:13:32;2.42;;;0.50;;
75156;SDS011;63736;50.076;8.198;2022-10-15T01:16:43;2.50;;;0.60;;
75156;SDS011;63736;50.076;8.198;2022-10-15T01:19:14;3.40;;;0.70;;
75156;SDS011;63736;50.076;8.198;2022-10-15T01:22:08;2.95;;;0.88;;
75156;SDS011;63736;50.076;8.198;2022-10-15T01:27:37;2.92;;;0.90;;
75156;SDS011;63736;50.076;8.198;2022-10-15T01:30:13;3.67;;;1.02;;
75156;SDS011;63736;50.076;8.198;2022-10-15T01:32:52;3.43;;;0.90;;
75156;SDS011;63736;50.076;8.198;2022-10-15T01:35:50;3.13;;;0.90;;
75156;SDS011;63736;50.076;8.198;2022-10-15T01:41:19;3.47;;;0.63;;
75156;SDS011;63736;50.076;8.198;2022-10-15T01:43:59;4.13;;;0.85;;
75156;SDS011;63736;50.076;8.198;2022-10-15T01:46:33;3.00;;;0.90;;
75156;SDS011;63736;50.076;8.198;2022-10-15T01:49:02;2.78;;;0.60;;
75156;SDS011;63736;50.076;8.198;2022-10-15T01:51:29;2.53;;;0.63;;
75156;SDS011;63736;50.076;8.198;2022-10-15T01:53:58;2.50;;;0.70;;
75156;SDS011;63736;50.076;8.198;2022-10-15T01:56:25;2.78;;;0.68;;
75156;SDS011;63736;50.076;8.198;2022-10-15T01:58:51;2.70;;;0.70;;
75156;SDS011;63736;50.076;8.198;2022-10-15T02:01:19;3.20;;;1.00;;
75156;SDS011;63736;50.076;8.198;2022-10-15T02:03:49;2.90;;;0.88;;
75156;SDS011;63736;50.076;8.198;2022-10-15T02:06:17;2.80;;;0.80;;
75156;SDS011;63736;50.076;8.198;2022-10-15T02:08:51;3.77;;;1.07;;
75156;SDS011;63736;50.076;8.198;2022-10-15T02:11:26;3.17;;;0.93;;
75156;SDS011;63736;50.076;8.198;2022-10-15T02:14:01;4.82;;;1.45;;
75156;SDS011;63736;50.076;8.198;2022-10-15T02:16:36;4.15;;;1.23;;
75156;SDS011;63736;50.076;8.198;2022-10-15T02:19:11;4.15;;;1.58;;
75156;SDS011;63736;50.076;8.198;2022-10-15T02:24:26;4.78;;;1.25;;
75156;SDS011;63736;50.076;8.198;2022-10-15T02:26:58;5.72;;;1.50;;
75156;SDS011;63736;50.076;8.198;2022-10-15T02:29:27;3.50;;;0.95;;
75156;SDS011;63736;50.076;8.198;2022-10-15T02:31:57;3.78;;;1.08;;
75156;SDS011;63736;50.076;8.198;2022-10-15T02:34:24;3.80;;;0.80;;
75156;SDS011;63736;50.076;8.198;2022-10-15T02:36:53;3.58;;;0.82;;
75156;SDS011;63736;50.076;8.198;2022-10-15T02:39:22;4.45;;;1.17;;
75156;SDS011;63736;50.076;8.198;2022-10-15T02:41:48;5.80;;;1.40;;
75156;SDS011;63736;50.076;8.198;2022-10-15T02:44:14;5.47;;;1.50;;
75156;SDS011;63736;50.076;8.198;2022-10-15T02:46:40;3.80;;;0.80;;
75156;SDS011;63736;50.076;8.198;2022-10-15T02:49:05;3.40;;;0.80;;
75156;SDS011;63736;50.076;8.198;2022-10-15T02:51:31;3.10;;;0.70;;
75156;SDS011;63736;50.076;8.198;2022-10-15T02:53:57;1.73;;;0.32;;
75156;SDS011;63736;50.076;8.198;2022-10-15T02:56:23;4.77;;;1.40;;
75156;SDS011;63736;50.076;8.198;2022-10-15T02:58:48;3.10;;;0.70;;
75156;SDS011;63736;50.076;8.198;2022-10-15T03:01:13;3.77;;;1.00;;
75156;SDS011;63736;50.076;8.198;2022-10-15T03:03:38;3.73;;;1.10;;
75156;SDS011;63736;50.076;8.198;2022-10-15T03:06:04;4.20;;;1.10;;
75156;SDS011;63736;50.076;8.198;2022-10-15T03:08:30;4.13;;;0.80;;
75156;SDS011;63736;50.076;8.198;2022-10-15T03:10:58;3.40;;;0.67;;
75156;SDS011;63736;50.076;8.198;2022-10-15T03:13:24;3.65;;;0.88;;
75156;SDS011;63736;50.076;8.198;2022-10-15T03:15:49;3.67;;;0.87;;
75156;SDS011;63736;50.076;8.198;2022-10-15T03:18:15;2.87;;;0.60;;
75156;SDS011;63736;50.076;8.198;2022-10-15T03:20:40;2.03;;;0.40;;
75156;SDS011;63736;50.076;8.198;2022-10-15T03:23:05;2.97;;;0.83;;
75156;SDS011;63736;50.076;8.198;2022-10-15T03:25:30;3.77;;;1.00;;
75156;SDS011;63736;50.076;8.198;2022-10-15T03:27:56;2.23;;;0.50;;
75156;SDS011;63736;50.076;8.198;2022-10-15T03:30:21;2.63;;;0.70;;
75156;SDS011;63736;50.076;8.198;2022-10-15T03:32:46;1.80;;;0.40;;
75156;SDS011;63736;50.076;8.198;2022-10-15T03:35:12;1.67;;;0.50;;
75156;SDS011;63736;50.076;8.198;2022-10-15T03:37:37;2.80;;;0.70;;
75156;SDS011;63736;50.076;8.198;2022-10-15T03:40:02;2.93;;;0.60;;
75156;SDS011;63736;50.076;8.198;2022-10-15T03:42:28;3.38;;;1.10;;
75156;SDS011;63736;50.076;8.198;2022-10-15T03:44:53;3.40;;;1.00;;
75156;SDS011;63736;50.076;8.198;2022-10-15T03:47:18;2.93;;;0.60;;
75156;SDS011;63736;50.076;8.198;2022-10-15T03:49:43;4.47;;;1.10;;
75156;SDS011;63736;50.076;8.198;2022-10-15T03:52:09;3.73;;;1.10;;
75156;SDS011;63736;50.076;8.198;2022-10-15T03:54:34;3.47;;;0.80;;
75156;SDS011;63736;50.076;8.198;2022-10-15T03:56:59;3.57;;;0.77;;
75156;SDS011;63736;50.076;8.198;2022-10-15T03:59:25;2.97;;;0.70;;
75156;SDS011;63736;50.076;8.198;2022-10-15T04:01:50;2.47;;;0.67;;
75156;SDS011;63736;50.076;8.198;2022-10-15T04:04:15;3.27;;;0.80;;
75156;SDS011;63736;50.076;8.198;2022-10-15T04:06:40;3.40;;;1.30;;
75156;SDS011;63736;50.076;8.198;2022-10-15T04:09:06;5.13;;;1.63;;
75156;SDS011;63736;50.076;8.198;2022-10-15T04:11:34;3.88;;;1.30;;
75156;SDS011;63736;50.076;8.198;2022-10-15T04:13:59;4.47;;;1.20;;
75156;SDS011;63736;50.076;8.198;2022-10-15T04:16:24;5.47;;;1.23;;
75156;SDS011;63736;50.076;8.198;2022-10-15T04:18:50;3.97;;;1.30;;
75156;SDS011;63736;50.076;8.198;2022-10-15T04:21:15;7.07;;;2.27;;
75156;SDS011;63736;50.076;8.198;2022-10-15T04:23:40;4.82;;;1.38;;
75156;SDS011;63736;50.076;8.198;2022-10-15T04:26:05;4.63;;;1.47;;
75156;SDS011;63736;50.076;8.198;2022-10-15T04:28:31;3.67;;;1.03;;
75156;SDS011;63736;50.076;8.198;2022-10-15T04:30:57;4.95;;;1.70;;
75156;SDS011;63736;50.076;8.198;2022-10-15T04:33:24;6.27;;;2.30;;
75156;SDS011;63736;50.076;8.198;2022-10-15T04:38:32;5.03;;;1.70;;
75156;SDS011;63736;50.076;8.198;2022-10-15T04:40:58;5.15;;;1.65;;
75156;SDS011;63736;50.076;8.198;2022-10-15T04:43:25;5.87;;;1.90;;
75156;SDS011;63736;50.076;8.198;2022-10-15T04:45:54;6.80;;;3.20;;
75156;SDS011;63736;50.076;8.198;2022-10-15T04:48:20;7.70;;;2.83;;
75156;SDS011;63736;50.076;8.198;2022-10-15T04:50:45;8.37;;;2.77;;
75156;SDS011;63736;50.076;8.198;2022-10-15T04:53:10;6.23;;;2.23;;
75156;SDS011;63736;50.076;8.198;2022-10-15T04:55:35;6.23;;;2.20;;
75156;SDS011;63736;50.076;8.198;2022-10-15T04:58:01;5.20;;;1.93;;
75156;SDS011;63736;50.076;8.198;2022-10-15T05:00:26;6.73;;;2.40;;
75156;SDS011;63736;50.076;8.198;2022-10-15T05:02:51;6.73;;;2.63;;
75156;SDS011;63736;50.076;8.198;2022-10-15T05:05:16;5.47;;;1.70;;
75156;SDS011;63736;50.076;8.198;2022-10-15T05:07:42;8.53;;;2.87;;
75156;SDS011;63736;50.076;8.198;2022-10-15T05:10:07;13.43;;;2.53;;
75156;SDS011;63736;50.076;8.198;2022-10-15T05:12:32;10.37;;;3.30;;
75156;SDS011;63736;50.076;8.198;2022-10-15T05:14:58;7.40;;;3.17;;
75156;SDS011;63736;50.076;8.198;2022-10-15T05:17:23;7.37;;;2.17;;
75156;SDS011;63736;50.076;8.198;2022-10-15T05:19:48;25.23;;;4.20;;
75156;SDS011;63736;50.076;8.198;2022-10-15T05:22:14;28.53;;;4.47;;
75156;SDS011;63736;50.076;8.198;2022-10-15T05:24:39;19.17;;;3.40;;
75156;SDS011;63736;50.076;8.198;2022-10-15T05:27:04;9.80;;;2.97;;
75156;SDS011;63736;50.076;8.198;2022-10-15T05:29:29;16.13;;;2.83;;
75156;SDS011;63736;50.076;8.198;2022-10-15T05:31:55;17.83;;;4.23;;
75156;SDS011;63736;50.076;8.198;2022-10-15T05:34:20;13.83;;;3.20;;
75156;SDS011;63736;50.076;8.198;2022-10-15T05:36:45;12.17;;;3.70;;
75156;SDS011;63736;50.076;8.198;2022-10-15T05:39:11;31.83;;;4.10;;
75156;SDS011;63736;50.076;8.198;2022-10-15T05:41:37;24.80;;;3.90;;
75156;SDS011;63736;50.076;8.198;2022-10-15T05:44:03;9.37;;;3.13;;
75156;SDS011;63736;50.076;8.198;2022-10-15T05:46:28;20.75;;;4.18;;
75156;SDS011;63736;50.076;8.198;2022-10-15T05:48:54;11.37;;;3.90;;
75156;SDS011;63736;50.076;8.198;2022-10-15T05:51:22;11.83;;;3.97;;
75156;SDS011;63736;50.076;8.198;2022-10-15T05:53:50;9.90;;;4.20;;
75156;SDS011;63736;50.076;8.198;2022-10-15T05:56:16;11.55;;;3.85;;
75156;SDS011;63736;50.076;8.198;2022-10-15T05:58:42;8.07;;;3.53;;
75156;SDS011;63736;50.076;8.198;2022-10-15T06:01:08;7.43;;;3.20;;
75156;SDS011;63736;50.076;8.198;2022-10-15T06:03:35;9.55;;;3.80;;
75156;SDS011;63736;50.076;8.198;2022-10-15T06:06:01;5.65;;;2.30;;
75156;SDS011;63736;50.076;8.198;2022-10-15T06:08:27;8.53;;;3.40;;
75156;SDS011;63736;50.076;8.198;2022-10-15T06:10:53;7.87;;;2.63;;
75156;SDS011;63736;50.076;8.198;2022-10-15T06:13:20;6.75;;;2.78;;
75156;SDS011;63736;50.076;8.198;2022-10-15T06:15:46;8.90;;;3.30;;
75156;SDS011;63736;50.076;8.198;2022-10-15T06:18:11;6.73;;;2.87;;
75156;SDS011;63736;50.076;8.198;2022-10-15T06:20:40;5.10;;;1.80;;
75156;SDS011;63736;50.076;8.198;2022-10-15T06:23:06;7.38;;;3.05;;
75156;SDS011;63736;50.076;8.198;2022-10-15T06:25:32;9.17;;;3.30;;
75156;SDS011;63736;50.076;8.198;2022-10-15T06:28:01;10.00;;;3.50;;
75156;SDS011;63736;50.076;8.198;2022-10-15T06:30:28;8.65;;;3.10;;
75156;SDS011;63736;50.076;8.198;2022-10-15T06:32:54;9.00;;;2.53;;
75156;SDS011;63736;50.076;8.198;2022-10-15T06:35:20;6.10;;;1.70;;
75156;SDS011;63736;50.076;8.198;2022-10-15T06:37:46;5.65;;;1.92;;
75156;SDS011;63736;50.076;8.198;2022-10-15T06:40:12;6.88;;;2.47;;
75156;SDS011;63736;50.076;8.198;2022-10-15T06:42:38;5.57;;;2.10;;
75156;SDS011;63736;50.076;8.198;2022-10-15T06:45:04;7.00;;;2.90;;
75156;SDS011;63736;50.076;8.198;2022-10-15T06:47:30;4.53;;;1.52;;
75156;SDS011;63736;50.076;8.198;2022-10-15T06:49:55;5.77;;;2.07;;
75156;SDS011;63736;50.076;8.198;2022-10-15T06:52:21;5.70;;;1.93;;
75156;SDS011;63736;50.076;8.198;2022-10-15T06:54:47;6.55;;;2.45;;
75156;SDS011;63736;50.076;8.198;2022-10-15T06:57:13;7.50;;;2.20;;
75156;SDS011;63736;50.076;8.198;2022-10-15T06:59:38;4.73;;;1.73;;
75156;SDS011;63736;50.076;8.198;2022-10-15T07:02:03;4.97;;;1.80;;
75156;SDS011;63736;50.076;8.198;2022-10-15T07:04:28;4.43;;;1.50;;
75156;SDS011;63736;50.076;8.198;2022-10-15T07:06:54;6.33;;;2.10;;
75156;SDS011;63736;50.076;8.198;2022-10-15T07:09:19;5.83;;;1.50;;
75156;SDS011;63736;50.076;8.198;2022-10-15T07:11:44;6.47;;;2.90;;
75156;SDS011;63736;50.076;8.198;2022-10-15T07:14:10;5.53;;;2.05;;
75156;SDS011;63736;50.076;8.198;2022-10-15T07:16:35;3.63;;;1.20;;
75156;SDS011;63736;50.076;8.198;2022-10-15T07:19:02;7.30;;;2.30;;
75156;SDS011;63736;50.076;8.198;2022-10-15T07:21:28;4.43;;;1.30;;
75156;SDS011;63736;50.076;8.198;2022-10-15T07:23:53;3.90;;;1.30;;
75156;SDS011;63736;50.076;8.198;2022-10-15T07:26:18;4.00;;;1.20;;
75156;SDS011;63736;50.076;8.198;2022-10-15T07:28:43;3.67;;;1.13;;
75156;SDS011;63736;50.076;8.198;2022-10-15T07:31:09;4.23;;;1.33;;
75156;SDS011;63736;50.076;8.198;2022-10-15T07:33:34;4.73;;;1.50;;
75156;SDS011;63736;50.076;8.198;2022-10-15T07:36:07;3.58;;;1.05;;
75156;SDS011;63736;50.076;8.198;2022-10-15T07:38:34;5.10;;;1.50;;
75156;SDS011;63736;50.076;8.198;2022-10-15T07:41:00;4.15;;;1.33;;
75156;SDS011;63736;50.076;8.198;2022-10-15T07:43:26;5.45;;;1.75;;
75156;SDS011;63736;50.076;8.198;2022-10-15T07:45:52;5.30;;;2.00;;
75156;SDS011;63736;50.076;8.198;2022-10-15T07:48:17;5.43;;;2.20;;
75156;SDS011;63736;50.076;8.198;2022-10-15T07:50:43;5.53;;;1.93;;
75156;SDS011;63736;50.076;8.198;2022-10-15T07:53:08;5.70;;;2.23;;
75156;SDS011;63736;50.076;8.198;2022-10-15T07:55:33;5.30;;;1.83;;
75156;SDS011;63736;50.076;8.198;2022-10-15T07:57:59;4.10;;;1.47;;
75156;SDS011;63736;50.076;8.198;2022-10-15T08:00:24;4.37;;;1.50;;
75156;SDS011;63736;50.076;8.198;2022-10-15T08:02:49;3.90;;;1.27;;
75156;SDS011;63736;50.076;8.198;2022-10-15T08:05:15;3.97;;;1.40;;
75156;SDS011;63736;50.076;8.198;2022-10-15T08:07:40;4.60;;;2.20;;
75156;SDS011;63736;50.076;8.198;2022-10-15T08:10:08;6.72;;;3.20;;
75156;SDS011;63736;50.076;8.198;2022-10-15T08:12:35;6.43;;;3.10;;
75156;SDS011;63736;50.076;8.198;2022-10-15T08:15:00;4.40;;;1.70;;
75156;SDS011;63736;50.076;8.198;2022-10-15T08:17:26;3.30;;;1.05;;
75156;SDS011;63736;50.076;8.198;2022-10-15T08:19:51;4.63;;;1.80;;
75156;SDS011;63736;50.076;8.198;2022-10-15T08:22:16;4.07;;;1.30;;
75156;SDS011;63736;50.076;8.198;2022-10-15T08:24:41;3.77;;;1.40;;
75156;SDS011;63736;50.076;8.198;2022-10-15T08:27:07;3.67;;;1.40;;
75156;SDS011;63736;50.076;8.198;2022-10-15T08:29:32;4.00;;;1.40;;
75156;SDS011;63736;50.076;8.198;2022-10-15T08:31:57;3.73;;;1.50;;
75156;SDS011;63736;50.076;8.198;2022-10-15T08:34:23;4.00;;;1.40;;
75156;SDS011;63736;50.076;8.198;2022-10-15T08:36:48;4.37;;;1.70;;
75156;SDS011;63736;50.076;8.198;2022-10-15T08:39:13;5.43;;;1.60;;
75156;SDS011;63736;50.076;8.198;2022-10-15T08:41:58;3.70;;;1.20;;
75156;SDS011;63736;50.076;8.198;2022-10-15T08:45:01;5.45;;;2.15;;
75156;SDS011;63736;50.076;8.198;2022-10-15T08:49:54;4.50;;;1.60;;
75156;SDS011;63736;50.076;8.198;2022-10-15T08:52:28;6.13;;;1.70;;
75156;SDS011;63736;50.076;8.198;2022-10-15T08:54:58;17.55;;;11.38;;
75156;SDS011;63736;50.076;8.198;2022-10-15T09:00:11;7.30;;;3.90;;
75156;SDS011;63736;50.076;8.198;2022-10-15T09:03:39;5.82;;;2.50;;
75156;SDS011;63736;50.076;8.198;2022-10-15T09:14:13;3.75;;;1.02;;
75156;SDS011;63736;50.076;8.198;2022-10-15T09:16:42;3.60;;;1.20;;
75156;SDS011;63736;50.076;8.198;2022-10-15T09:19:14;4.60;;;1.53;;
75156;SDS011;63736;50.076;8.198;2022-10-15T09:21:42;3.13;;;1.10;;
75156;SDS011;63736;50.076;8.198;2022-10-15T09:24:08;3.53;;;1.20;;
75156;SDS011;63736;50.076;8.198;2022-10-15T09:29:38;5.00;;;1.33;;
75156;SDS011;63736;50.076;8.198;2022-10-15T09:32:18;3.97;;;1.20;;
75156;SDS011;63736;50.076;8.198;2022-10-15T09:37:37;4.47;;;1.50;;
75156;SDS011;63736;50.076;8.198;2022-10-15T09:43:16;3.63;;;1.25;;
75156;SDS011;63736;50.076;8.198;2022-10-15T09:45:52;3.73;;;1.20;;
75156;SDS011;63736;50.076;8.198;2022-10-15T09:48:18;3.42;;;1.15;;
75156;SDS011;63736;50.076;8.198;2022-10-15T09:53:29;3.83;;;1.20;;
75156;SDS011;63736;50.076;8.198;2022-10-15T09:58:50;4.20;;;1.80;;
75156;SDS011;63736;50.076;8.198;2022-10-15T10:01:22;3.60;;;1.20;;
75156;SDS011;63736;50.076;8.198;2022-10-15T10:03:52;9.02;;;3.72;;
75156;SDS011;63736;50.076;8.198;2022-10-15T10:06:32;4.45;;;1.52;;
75156;SDS011;63736;50.076;8.198;2022-10-15T10:09:11;4.13;;;1.20;;
75156;SDS011;63736;50.076;8.198;2022-10-15T10:11:45;3.07;;;1.07;;
75156;SDS011;63736;50.076;8.198;2022-10-15T10:14:19;3.90;;;1.30;;
75156;SDS011;63736;50.076;8.198;2022-10-15T10:17:30;4.07;;;1.20;;
75156;SDS011;63736;50.076;8.198;2022-10-15T10:19:42;3.63;;;1.35;;
75156;SDS011;63736;50.076;8.198;2022-10-15T10:22:14;4.95;;;1.83;;
75156;SDS011;63736;50.076;8.198;2022-10-15T10:24:42;4.23;;;1.33;;
75156;SDS011;63736;50.076;8.198;2022-10-15T10:27:17;3.60;;;1.30;;
75156;SDS011;63736;50.076;8.198;2022-10-15T10:30:01;3.40;;;1.48;;
75156;SDS011;63736;50.076;8.198;2022-10-15T10:32:29;4.05;;;1.58;;
75156;SDS011;63736;50.076;8.198;2022-10-15T10:34:57;4.20;;;1.53;;
75156;SDS011;63736;50.076;8.198;2022-10-15T10:37:24;4.20;;;1.65;;
75156;SDS011;63736;50.076;8.198;2022-10-15T10:39:52;5.72;;;1.88;;
75156;SDS011;63736;50.076;8.198;2022-10-15T10:42:23;5.18;;;2.20;;
75156;SDS011;63736;50.076;8.198;2022-10-15T10:44:50;3.50;;;1.40;;
75156;SDS011;63736;50.076;8.198;2022-10-15T10:47:23;3.60;;;1.50;;
75156;SDS011;63736;50.076;8.198;2022-10-15T10:49:54;6.80;;;2.22;;
75156;SDS011;63736;50.076;8.198;2022-10-15T10:55:15;4.97;;;1.50;;
75156;SDS011;63736;50.076;8.198;2022-10-15T10:57:44;5.90;;;1.52;;
75156;SDS011;63736;50.076;8.198;2022-10-15T11:00:15;3.80;;;1.50;;
75156;SDS011;63736;50.076;8.198;2022-10-15T11:02:44;3.55;;;1.23;;
75156;SDS011;63736;50.076;8.198;2022-10-15T11:05:10;4.15;;;1.75;;
75156;SDS011;63736;50.076;8.198;2022-10-15T11:07:49;7.13;;;1.92;;
75156;SDS011;63736;50.076;8.198;2022-10-15T11:10:25;4.10;;;1.47;;
75156;SDS011;63736;50.076;8.198;2022-10-15T11:15:59;7.00;;;2.10;;
75156;SDS011;63736;50.076;8.198;2022-10-15T11:21:25;5.03;;;1.20;;
75156;SDS011;63736;50.076;8.198;2022-10-15T11:24:07;3.30;;;1.20;;
75156;SDS011;63736;50.076;8.198;2022-10-15T11:32:17;4.75;;;1.20;;
75156;SDS011;63736;50.076;8.198;2022-10-15T11:35:10;4.45;;;1.15;;
75156;SDS011;63736;50.076;8.198;2022-10-15T11:37:44;3.23;;;1.03;;
75156;SDS011;63736;50.076;8.198;2022-10-15T11:43:34;3.60;;;1.25;;
75156;SDS011;63736;50.076;8.198;2022-10-15T11:57:34;2.95;;;1.10;;
75156;SDS011;63736;50.076;8.198;2022-10-15T12:00:03;2.90;;;0.90;;
75156;SDS011;63736;50.076;8.198;2022-10-15T12:02:36;2.15;;;0.57;;
75156;SDS011;63736;50.076;8.198;2022-10-15T12:05:07;2.57;;;0.70;;
75156;SDS011;63736;50.076;8.198;2022-10-15T12:07:42;2.28;;;0.60;;
75156;SDS011;63736;50.076;8.198;2022-10-15T12:12:46;2.42;;;0.70;;
75156;SDS011;63736;50.076;8.198;2022-10-15T12:18:38;4.73;;;1.00;;
75156;SDS011;63736;50.076;8.198;2022-10-15T12:21:28;3.80;;;1.50;;
75156;SDS011;63736;50.076;8.198;2022-10-15T12:23:56;3.53;;;1.13;;
75156;SDS011;63736;50.076;8.198;2022-10-15T12:28:59;4.35;;;1.75;;
75156;SDS011;63736;50.076;8.198;2022-10-15T12:31:41;4.47;;;1.23;;
75156;SDS011;63736;50.076;8.198;2022-10-15T12:34:19;4.63;;;1.00;;
75156;SDS011;63736;50.076;8.198;2022-10-15T12:37:12;3.28;;;1.00;;
75156;SDS011;63736;50.076;8.198;2022-10-15T12:39:43;3.13;;;0.70;;
75156;SDS011;63736;50.076;8.198;2022-10-15T12:42:18;3.28;;;0.93;;
75156;SDS011;63736;50.076;8.198;2022-10-15T12:45:06;2.85;;;0.60;;
75156;SDS011;63736;50.076;8.198;2022-10-15T12:47:53;3.13;;;0.87;;
75156;SDS011;63736;50.076;8.198;2022-10-15T12:50:36;2.22;;;0.60;;
75156;SDS011;63736;50.076;8.198;2022-10-15T12:58:34;5.72;;;1.40;;
75156;SDS011;63736;50.076;8.198;2022-10-15T13:01:49;4.30;;;1.80;;
75156;SDS011;63736;50.076;8.198;2022-10-15T13:03:52;3.78;;;1.25;;
75156;SDS011;63736;50.076;8.198;2022-10-15T13:08:56;2.90;;;0.90;;
75156;SDS011;63736;50.076;8.198;2022-10-15T13:11:48;3.43;;;1.17;;
75156;SDS011;63736;50.076;8.198;2022-10-15T13:14:37;2.97;;;0.93;;
75156;SDS011;63736;50.076;8.198;2022-10-15T13:17:15;4.25;;;1.13;;
75156;SDS011;63736;50.076;8.198;2022-10-15T13:20:02;3.00;;;0.90;;
75156;SDS011;63736;50.076;8.198;2022-10-15T13:22:32;2.50;;;0.70;;
75156;SDS011;63736;50.076;8.198;2022-10-15T13:24:59;3.23;;;0.90;;
75156;SDS011;63736;50.076;8.198;2022-10-15T13:30:17;1.80;;;0.50;;
75156;SDS011;63736;50.076;8.198;2022-10-15T13:32:52;2.70;;;0.57;;
75156;SDS011;63736;50.076;8.198;2022-10-15T13:35:23;3.58;;;1.10;;
75156;SDS011;63736;50.076;8.198;2022-10-15T13:37:53;2.57;;;0.70;;
75156;SDS011;63736;50.076;8.198;2022-10-15T13:40:24;4.20;;;1.08;;
75156;SDS011;63736;50.076;8.198;2022-10-15T13:43:01;4.28;;;1.00;;
75156;SDS011;63736;50.076;8.198;2022-10-15T13:45:30;3.03;;;0.75;;
75156;SDS011;63736;50.076;8.198;2022-10-15T13:47:56;3.15;;;1.00;;
75156;SDS011;63736;50.076;8.198;2022-10-15T13:50:29;3.90;;;1.20;;
75156;SDS011;63736;50.076;8.198;2022-10-15T13:55:34;4.00;;;1.20;;
75156;SDS011;63736;50.076;8.198;2022-10-15T13:58:05;3.25;;;0.80;;
75156;SDS011;63736;50.076;8.198;2022-10-15T14:03:44;4.40;;;1.27;;
75156;SDS011;63736;50.076;8.198;2022-10-15T14:08:54;2.47;;;0.50;;
75156;SDS011;63736;50.076;8.198;2022-10-15T14:11:25;3.53;;;0.98;;
75156;SDS011;63736;50.076;8.198;2022-10-15T14:13:52;5.20;;;1.20;;
75156;SDS011;63736;50.076;8.198;2022-10-15T14:16:20;5.00;;;1.63;;
75156;SDS011;63736;50.076;8.198;2022-10-15T14:19:25;3.88;;;0.93;;
75156;SDS011;63736;50.076;8.198;2022-10-15T14:21:45;2.13;;;0.60;;
75156;SDS011;63736;50.076;8.198;2022-10-15T14:24:19;2.38;;;0.60;;
75156;SDS011;63736;50.076;8.198;2022-10-15T14:26:46;4.20;;;0.63;;
75156;SDS011;63736;50.076;8.198;2022-10-15T14:29:23;2.60;;;0.60;;
75156;SDS011;63736;50.076;8.198;2022-10-15T14:31:53;2.50;;;0.73;;
75156;SDS011;63736;50.076;8.198;2022-10-15T14:34:24;2.37;;;0.50;;
75156;SDS011;63736;50.076;8.198;2022-10-15T14:36:55;1.85;;;0.50;;
75156;SDS011;63736;50.076;8.198;2022-10-15T14:39:24;2.85;;;0.65;;
75156;SDS011;63736;50.076;8.198;2022-10-15T14:41:56;2.58;;;0.70;;
75156;SDS011;63736;50.076;8.198;2022-10-15T14:44:23;2.63;;;0.60;;
75156;SDS011;63736;50.076;8.198;2022-10-15T14:46:50;2.80;;;0.52;;
75156;SDS011;63736;50.076;8.198;2022-10-15T14:49:33;2.53;;;0.70;;
75156;SDS011;63736;50.076;8.198;2022-10-15T14:52:06;1.97;;;0.47;;
75156;SDS011;63736;50.076;8.198;2022-10-15T14:54:37;3.78;;;0.50;;
75156;SDS011;63736;50.076;8.198;2022-10-15T14:57:11;2.53;;;0.73;;
75156;SDS011;63736;50.076;8.198;2022-10-15T14:59:41;1.75;;;0.50;;
75156;SDS011;63736;50.076;8.198;2022-10-15T15:02:09;2.33;;;0.57;;
75156;SDS011;63736;50.076;8.198;2022-10-15T15:04:40;2.60;;;0.70;;
75156;SDS011;63736;50.076;8.198;2022-10-15T15:07:12;2.75;;;0.57;;
75156;SDS011;63736;50.076;8.198;2022-10-15T15:09:39;4.80;;;1.50;;
75156;SDS011;63736;50.076;8.198;2022-10-15T15:12:07;3.85;;;1.30;;
75156;SDS011;63736;50.076;8.198;2022-10-15T15:14:38;6.70;;;1.30;;
75156;SDS011;63736;50.076;8.198;2022-10-15T15:17:03;2.90;;;0.77;;
75156;SDS011;63736;50.076;8.198;2022-10-15T15:19:29;5.13;;;1.23;;
75156;SDS011;63736;50.076;8.198;2022-10-15T15:21:54;2.90;;;0.80;;
75156;SDS011;63736;50.076;8.198;2022-10-15T15:24:20;3.30;;;0.90;;
75156;SDS011;63736;50.076;8.198;2022-10-15T15:26:45;4.23;;;1.10;;
75156;SDS011;63736;50.076;8.198;2022-10-15T15:29:11;3.90;;;1.60;;
75156;SDS011;63736;50.076;8.198;2022-10-15T15:31:39;3.05;;;0.82;;
75156;SDS011;63736;50.076;8.198;2022-10-15T15:34:05;3.57;;;0.90;;
75156;SDS011;63736;50.076;8.198;2022-10-15T15:36:30;3.10;;;0.90;;
75156;SDS011;63736;50.076;8.198;2022-10-15T15:38:55;4.77;;;1.20;;
75156;SDS011;63736;50.076;8.198;2022-10-15T15:41:22;4.87;;;1.50;;
75156;SDS011;63736;50.076;8.198;2022-10-15T15:43:49;2.85;;;0.80;;
75156;SDS011;63736;50.076;8.198;2022-10-15T15:46:15;4.20;;;1.30;;
75156;SDS011;63736;50.076;8.198;2022-10-15T15:48:41;4.33;;;1.10;;
75156;SDS011;63736;50.076;8.198;2022-10-15T15:54:01;4.15;;;1.10;;
75156;SDS011;63736;50.076;8.198;2022-10-15T15:56:30;4.13;;;1.10;;
75156;SDS011;63736;50.076;8.198;2022-10-15T15:58:55;3.80;;;0.70;;
75156;SDS011;63736;50.076;8.198;2022-10-15T16:01:20;3.30;;;0.70;;
75156;SDS011;63736;50.076;8.198;2022-10-15T16:03:46;4.43;;;0.80;;
75156;SDS011;63736;50.076;8.198;2022-10-15T16:06:11;3.07;;;0.83;;
75156;SDS011;63736;50.076;8.198;2022-10-15T16:08:37;4.07;;;0.82;;
75156;SDS011;63736;50.076;8.198;2022-10-15T16:11:03;4.80;;;0.70;;
75156;SDS011;63736;50.076;8.198;2022-10-15T16:13:30;4.40;;;1.02;;
75156;SDS011;63736;50.076;8.198;2022-10-15T16:15:56;5.27;;;0.90;;
75156;SDS011;63736;50.076;8.198;2022-10-15T16:18:21;4.15;;;0.80;;
75156;SDS011;63736;50.076;8.198;2022-10-15T16:20:47;4.27;;;1.00;;
75156;SDS011;63736;50.076;8.198;2022-10-15T16:23:13;3.72;;;1.23;;
75156;SDS011;63736;50.076;8.198;2022-10-15T16:25:38;4.33;;;1.50;;
75156;SDS011;63736;50.076;8.198;2022-10-15T16:28:03;4.47;;;1.30;;
75156;SDS011;63736;50.076;8.198;2022-10-15T16:30:29;3.63;;;1.05;;
75156;SDS011;63736;50.076;8.198;2022-10-15T16:32:55;3.03;;;0.73;;
75156;SDS011;63736;50.076;8.198;2022-10-15T16:35:20;2.83;;;0.80;;
75156;SDS011;63736;50.076;8.198;2022-10-15T16:37:45;3.90;;;0.90;;
75156;SDS011;63736;50.076;8.198;2022-10-15T16:40:11;4.43;;;0.87;;
75156;SDS011;63736;50.076;8.198;2022-10-15T16:42:39;2.50;;;0.60;;
75156;SDS011;63736;50.076;8.198;2022-10-15T16:45:05;2.60;;;0.70;;